sensor_id;sensor_type;location;lat;lon;timestamp;P1;durP1;ratioP1;P2;durP2;ratioP2
27003;SDS011;14546;47.590;19.022;2022-11-09T00:01:36;92.70;;;45.08;;
27003;SDS011;14546;47.590;19.022;2022-11-09T00:04:03;97.43;;;47.67;;
27003;SDS011;14546;47.590;19.022;2022-11-09T00:06:30;90.30;;;43.67;;
27003;SDS011;14546;47.590;19.022;2022-11-09T00:08:56;98.43;;;45.90;;
27003;SDS011;14546;47.590;19.022;2022-11-09T00:11:22;105.88;;;46.15;;
27003;SDS011;14546;47.590;19.022;2022-11-09T00:13:49;94.72;;;44.97;;
27003;SDS011;14546;47.590;19.022;2022-11-09T00:16:16;94.63;;;45.08;;
27003;SDS011;14546;47.590;19.022;2022-11-09T00:18:42;94.85;;;44.88;;
27003;SDS011;14546;47.590;19.022;2022-11-09T00:21:19;92.03;;;44.25;;
27003;SDS011;14546;47.590;19.022;2022-11-09T00:23:45;95.77;;;45.27;;
27003;SDS011;14546;47.590;19.022;2022-11-09T00:26:12;92.63;;;45.33;;
27003;SDS011;14546;47.590;19.022;2022-11-09T00:28:38;98.57;;;45.40;;
27003;SDS011;14546;47.590;19.022;2022-11-09T00:31:15;96.53;;;45.47;;
27003;SDS011;14546;47.590;19.022;2022-11-09T00:33:41;92.43;;;44.13;;
27003;SDS011;14546;47.590;19.022;2022-11-09T00:36:09;90.80;;;43.47;;
27003;SDS011;14546;47.590;19.022;2022-11-09T00:38:36;93.05;;;44.33;;
27003;SDS011;14546;47.590;19.022;2022-11-09T00:41:04;83.85;;;43.60;;
27003;SDS011;14546;47.590;19.022;2022-11-09T00:43:31;80.90;;;41.92;;
27003;SDS011;14546;47.590;19.022;2022-11-09T00:45:57;88.35;;;42.17;;
27003;SDS011;14546;47.590;19.022;2022-11-09T00:48:23;87.60;;;42.53;;
27003;SDS011;14546;47.590;19.022;2022-11-09T00:50:53;96.75;;;44.35;;
27003;SDS011;14546;47.590;19.022;2022-11-09T00:53:19;92.60;;;41.80;;
27003;SDS011;14546;47.590;19.022;2022-11-09T00:56:19;91.38;;;44.78;;
27003;SDS011;14546;47.590;19.022;2022-11-09T00:58:38;91.50;;;43.65;;
27003;SDS011;14546;47.590;19.022;2022-11-09T01:01:11;98.15;;;43.17;;
27003;SDS011;14546;47.590;19.022;2022-11-09T01:03:38;90.82;;;43.25;;
27003;SDS011;14546;47.590;19.022;2022-11-09T01:06:04;85.13;;;42.05;;
27003;SDS011;14546;47.590;19.022;2022-11-09T01:08:31;100.22;;;44.00;;
27003;SDS011;14546;47.590;19.022;2022-11-09T01:11:02;89.30;;;41.83;;
27003;SDS011;14546;47.590;19.022;2022-11-09T01:13:28;89.70;;;41.35;;
27003;SDS011;14546;47.590;19.022;2022-11-09T01:15:54;87.43;;;41.92;;
27003;SDS011;14546;47.590;19.022;2022-11-09T01:18:20;91.57;;;42.00;;
27003;SDS011;14546;47.590;19.022;2022-11-09T01:20:47;89.68;;;41.85;;
27003;SDS011;14546;47.590;19.022;2022-11-09T01:23:14;92.50;;;41.70;;
27003;SDS011;14546;47.590;19.022;2022-11-09T01:25:40;92.65;;;41.25;;
27003;SDS011;14546;47.590;19.022;2022-11-09T01:28:06;100.60;;;43.80;;
27003;SDS011;14546;47.590;19.022;2022-11-09T01:30:33;86.00;;;39.63;;
27003;SDS011;14546;47.590;19.022;2022-11-09T01:33:01;94.28;;;40.97;;
27003;SDS011;14546;47.590;19.022;2022-11-09T01:35:28;81.35;;;40.58;;
27003;SDS011;14546;47.590;19.022;2022-11-09T01:37:54;91.20;;;41.67;;
27003;SDS011;14546;47.590;19.022;2022-11-09T01:40:20;102.30;;;41.78;;
27003;SDS011;14546;47.590;19.022;2022-11-09T01:42:45;95.28;;;40.05;;
27003;SDS011;14546;47.590;19.022;2022-11-09T01:47:48;96.95;;;40.90;;
27003;SDS011;14546;47.590;19.022;2022-11-09T01:50:16;89.60;;;39.10;;
27003;SDS011;14546;47.590;19.022;2022-11-09T01:52:43;91.20;;;40.45;;
27003;SDS011;14546;47.590;19.022;2022-11-09T01:55:11;87.25;;;39.72;;
27003;SDS011;14546;47.590;19.022;2022-11-09T01:58:00;91.75;;;40.88;;
27003;SDS011;14546;47.590;19.022;2022-11-09T02:00:24;79.68;;;37.67;;
27003;SDS011;14546;47.590;19.022;2022-11-09T02:02:51;93.78;;;38.65;;
27003;SDS011;14546;47.590;19.022;2022-11-09T02:05:21;90.47;;;37.90;;
27003;SDS011;14546;47.590;19.022;2022-11-09T02:07:48;80.10;;;36.58;;
27003;SDS011;14546;47.590;19.022;2022-11-09T02:12:52;76.72;;;36.05;;
27003;SDS011;14546;47.590;19.022;2022-11-09T02:15:19;88.43;;;36.83;;
27003;SDS011;14546;47.590;19.022;2022-11-09T02:17:45;90.32;;;36.70;;
27003;SDS011;14546;47.590;19.022;2022-11-09T02:20:14;87.28;;;37.72;;
27003;SDS011;14546;47.590;19.022;2022-11-09T02:22:40;86.53;;;38.15;;
27003;SDS011;14546;47.590;19.022;2022-11-09T02:25:07;94.20;;;39.05;;
27003;SDS011;14546;47.590;19.022;2022-11-09T02:27:34;96.00;;;38.00;;
27003;SDS011;14546;47.590;19.022;2022-11-09T02:30:00;85.10;;;36.33;;
27003;SDS011;14546;47.590;19.022;2022-11-09T02:32:27;83.03;;;35.67;;
27003;SDS011;14546;47.590;19.022;2022-11-09T02:34:54;83.40;;;35.25;;
27003;SDS011;14546;47.590;19.022;2022-11-09T02:37:39;88.90;;;35.72;;
27003;SDS011;14546;47.590;19.022;2022-11-09T02:40:08;84.78;;;36.40;;
27003;SDS011;14546;47.590;19.022;2022-11-09T02:42:36;85.35;;;35.45;;
27003;SDS011;14546;47.590;19.022;2022-11-09T02:45:02;76.45;;;35.47;;
27003;SDS011;14546;47.590;19.022;2022-11-09T02:47:28;89.95;;;35.50;;
27003;SDS011;14546;47.590;19.022;2022-11-09T02:49:54;83.95;;;34.90;;
27003;SDS011;14546;47.590;19.022;2022-11-09T02:52:21;91.63;;;37.20;;
27003;SDS011;14546;47.590;19.022;2022-11-09T02:54:47;81.05;;;34.75;;
27003;SDS011;14546;47.590;19.022;2022-11-09T02:57:13;80.78;;;35.28;;
27003;SDS011;14546;47.590;19.022;2022-11-09T02:59:39;76.55;;;34.15;;
27003;SDS011;14546;47.590;19.022;2022-11-09T03:02:05;80.47;;;34.83;;
27003;SDS011;14546;47.590;19.022;2022-11-09T03:04:31;75.20;;;33.58;;
27003;SDS011;14546;47.590;19.022;2022-11-09T03:06:57;79.80;;;33.97;;
27003;SDS011;14546;47.590;19.022;2022-11-09T03:09:23;73.45;;;32.90;;
27003;SDS011;14546;47.590;19.022;2022-11-09T03:11:49;79.22;;;33.22;;
27003;SDS011;14546;47.590;19.022;2022-11-09T03:14:15;73.15;;;33.03;;
27003;SDS011;14546;47.590;19.022;2022-11-09T03:16:41;69.97;;;31.77;;
27003;SDS011;14546;47.590;19.022;2022-11-09T03:19:07;67.15;;;31.73;;
27003;SDS011;14546;47.590;19.022;2022-11-09T03:21:34;74.43;;;32.35;;
27003;SDS011;14546;47.590;19.022;2022-11-09T03:24:00;72.75;;;32.13;;
27003;SDS011;14546;47.590;19.022;2022-11-09T03:26:26;68.00;;;32.38;;
27003;SDS011;14546;47.590;19.022;2022-11-09T03:28:52;67.88;;;32.67;;
27003;SDS011;14546;47.590;19.022;2022-11-09T03:31:18;66.25;;;33.28;;
27003;SDS011;14546;47.590;19.022;2022-11-09T03:33:44;69.10;;;31.60;;
27003;SDS011;14546;47.590;19.022;2022-11-09T03:36:10;67.45;;;32.15;;
27003;SDS011;14546;47.590;19.022;2022-11-09T03:38:36;66.63;;;31.80;;
27003;SDS011;14546;47.590;19.022;2022-11-09T03:41:02;73.38;;;32.13;;
27003;SDS011;14546;47.590;19.022;2022-11-09T03:43:28;64.90;;;30.40;;
27003;SDS011;14546;47.590;19.022;2022-11-09T03:45:54;68.55;;;30.60;;
27003;SDS011;14546;47.590;19.022;2022-11-09T03:48:20;68.22;;;30.20;;
27003;SDS011;14546;47.590;19.022;2022-11-09T03:50:46;64.05;;;30.50;;
27003;SDS011;14546;47.590;19.022;2022-11-09T03:53:13;60.70;;;29.90;;
27003;SDS011;14546;47.590;19.022;2022-11-09T03:55:39;58.70;;;29.52;;
27003;SDS011;14546;47.590;19.022;2022-11-09T03:58:05;68.30;;;30.52;;
27003;SDS011;14546;47.590;19.022;2022-11-09T04:00:32;58.03;;;28.85;;
27003;SDS011;14546;47.590;19.022;2022-11-09T04:02:59;56.50;;;28.88;;
27003;SDS011;14546;47.590;19.022;2022-11-09T04:05:26;55.38;;;28.67;;
27003;SDS011;14546;47.590;19.022;2022-11-09T04:07:52;63.45;;;28.63;;
27003;SDS011;14546;47.590;19.022;2022-11-09T04:10:19;60.92;;;30.17;;
27003;SDS011;14546;47.590;19.022;2022-11-09T04:12:45;62.63;;;28.88;;
27003;SDS011;14546;47.590;19.022;2022-11-09T04:15:11;56.53;;;29.50;;
27003;SDS011;14546;47.590;19.022;2022-11-09T04:17:38;59.03;;;28.13;;
27003;SDS011;14546;47.590;19.022;2022-11-09T04:20:04;59.00;;;28.73;;
27003;SDS011;14546;47.590;19.022;2022-11-09T04:22:30;61.25;;;29.88;;
27003;SDS011;14546;47.590;19.022;2022-11-09T04:24:56;52.65;;;27.58;;
27003;SDS011;14546;47.590;19.022;2022-11-09T04:27:22;59.20;;;27.90;;
27003;SDS011;14546;47.590;19.022;2022-11-09T04:29:48;57.60;;;28.83;;
27003;SDS011;14546;47.590;19.022;2022-11-09T04:32:14;58.42;;;28.63;;
27003;SDS011;14546;47.590;19.022;2022-11-09T04:34:40;59.78;;;29.05;;
27003;SDS011;14546;47.590;19.022;2022-11-09T04:37:07;60.67;;;29.00;;
27003;SDS011;14546;47.590;19.022;2022-11-09T04:39:33;62.95;;;30.52;;
27003;SDS011;14546;47.590;19.022;2022-11-09T04:41:59;66.00;;;29.50;;
27003;SDS011;14546;47.590;19.022;2022-11-09T04:44:25;65.75;;;29.38;;
27003;SDS011;14546;47.590;19.022;2022-11-09T04:46:53;54.85;;;28.00;;
27003;SDS011;14546;47.590;19.022;2022-11-09T04:49:19;57.30;;;29.08;;
27003;SDS011;14546;47.590;19.022;2022-11-09T04:51:45;59.22;;;29.27;;
27003;SDS011;14546;47.590;19.022;2022-11-09T04:54:11;56.58;;;28.10;;
27003;SDS011;14546;47.590;19.022;2022-11-09T04:56:37;58.28;;;27.23;;
27003;SDS011;14546;47.590;19.022;2022-11-09T04:59:03;55.95;;;28.42;;
27003;SDS011;14546;47.590;19.022;2022-11-09T05:01:29;55.70;;;27.75;;
27003;SDS011;14546;47.590;19.022;2022-11-09T05:03:55;48.17;;;25.83;;
27003;SDS011;14546;47.590;19.022;2022-11-09T05:06:21;51.22;;;26.65;;
27003;SDS011;14546;47.590;19.022;2022-11-09T05:08:56;54.38;;;27.30;;
27003;SDS011;14546;47.590;19.022;2022-11-09T05:11:23;59.50;;;26.92;;
27003;SDS011;14546;47.590;19.022;2022-11-09T05:13:49;53.83;;;27.33;;
27003;SDS011;14546;47.590;19.022;2022-11-09T05:16:18;64.05;;;28.25;;
27003;SDS011;14546;47.590;19.022;2022-11-09T05:18:44;61.03;;;27.55;;
27003;SDS011;14546;47.590;19.022;2022-11-09T05:21:10;71.10;;;29.50;;
27003;SDS011;14546;47.590;19.022;2022-11-09T05:23:36;60.47;;;29.25;;
27003;SDS011;14546;47.590;19.022;2022-11-09T05:26:21;63.63;;;28.85;;
27003;SDS011;14546;47.590;19.022;2022-11-09T05:28:47;66.50;;;30.20;;
27003;SDS011;14546;47.590;19.022;2022-11-09T05:31:13;67.38;;;30.25;;
27003;SDS011;14546;47.590;19.022;2022-11-09T05:33:39;70.25;;;31.17;;
27003;SDS011;14546;47.590;19.022;2022-11-09T05:36:05;78.03;;;30.10;;
27003;SDS011;14546;47.590;19.022;2022-11-09T05:38:31;79.32;;;31.63;;
27003;SDS011;14546;47.590;19.022;2022-11-09T05:40:57;66.47;;;31.25;;
27003;SDS011;14546;47.590;19.022;2022-11-09T05:43:23;66.43;;;31.30;;
27003;SDS011;14546;47.590;19.022;2022-11-09T05:45:49;75.85;;;31.83;;
27003;SDS011;14546;47.590;19.022;2022-11-09T05:48:16;77.28;;;33.15;;
27003;SDS011;14546;47.590;19.022;2022-11-09T05:50:42;72.88;;;31.77;;
27003;SDS011;14546;47.590;19.022;2022-11-09T05:53:09;78.80;;;31.63;;
27003;SDS011;14546;47.590;19.022;2022-11-09T05:55:35;84.78;;;30.67;;
27003;SDS011;14546;47.590;19.022;2022-11-09T05:58:01;87.15;;;34.35;;
27003;SDS011;14546;47.590;19.022;2022-11-09T06:00:27;91.15;;;35.95;;
27003;SDS011;14546;47.590;19.022;2022-11-09T06:03:00;84.90;;;34.03;;
27003;SDS011;14546;47.590;19.022;2022-11-09T06:05:26;88.65;;;34.08;;
27003;SDS011;14546;47.590;19.022;2022-11-09T06:07:52;89.65;;;35.58;;
27003;SDS011;14546;47.590;19.022;2022-11-09T06:10:17;83.93;;;35.25;;
27003;SDS011;14546;47.590;19.022;2022-11-09T06:12:44;89.07;;;33.60;;
27003;SDS011;14546;47.590;19.022;2022-11-09T06:15:10;90.45;;;34.42;;
27003;SDS011;14546;47.590;19.022;2022-11-09T06:17:36;87.82;;;35.00;;
27003;SDS011;14546;47.590;19.022;2022-11-09T06:20:02;89.57;;;34.08;;
27003;SDS011;14546;47.590;19.022;2022-11-09T06:22:28;90.50;;;33.17;;
27003;SDS011;14546;47.590;19.022;2022-11-09T06:24:54;82.50;;;32.47;;
27003;SDS011;14546;47.590;19.022;2022-11-09T06:27:20;83.85;;;31.15;;
27003;SDS011;14546;47.590;19.022;2022-11-09T06:29:46;74.10;;;30.90;;
27003;SDS011;14546;47.590;19.022;2022-11-09T06:32:12;74.75;;;31.48;;
27003;SDS011;14546;47.590;19.022;2022-11-09T06:34:38;79.10;;;31.15;;
27003;SDS011;14546;47.590;19.022;2022-11-09T06:37:04;96.63;;;31.65;;
27003;SDS011;14546;47.590;19.022;2022-11-09T06:39:30;98.70;;;32.20;;
27003;SDS011;14546;47.590;19.022;2022-11-09T06:41:56;115.10;;;32.15;;
27003;SDS011;14546;47.590;19.022;2022-11-09T06:44:22;90.82;;;32.00;;
27003;SDS011;14546;47.590;19.022;2022-11-09T06:46:48;82.35;;;30.42;;
27003;SDS011;14546;47.590;19.022;2022-11-09T06:49:14;87.78;;;32.20;;
27003;SDS011;14546;47.590;19.022;2022-11-09T06:51:40;103.90;;;31.00;;
27003;SDS011;14546;47.590;19.022;2022-11-09T06:54:06;79.57;;;29.77;;
27003;SDS011;14546;47.590;19.022;2022-11-09T06:56:32;89.43;;;30.92;;
27003;SDS011;14546;47.590;19.022;2022-11-09T06:58:58;94.20;;;30.42;;
27003;SDS011;14546;47.590;19.022;2022-11-09T07:01:26;90.47;;;29.77;;
27003;SDS011;14546;47.590;19.022;2022-11-09T07:03:52;80.20;;;29.75;;
27003;SDS011;14546;47.590;19.022;2022-11-09T07:06:18;90.78;;;29.92;;
27003;SDS011;14546;47.590;19.022;2022-11-09T07:08:44;76.80;;;28.73;;
27003;SDS011;14546;47.590;19.022;2022-11-09T07:11:11;85.80;;;30.27;;
27003;SDS011;14546;47.590;19.022;2022-11-09T07:13:38;99.00;;;30.60;;
27003;SDS011;14546;47.590;19.022;2022-11-09T07:16:04;83.05;;;30.20;;
27003;SDS011;14546;47.590;19.022;2022-11-09T07:18:31;88.93;;;29.67;;
27003;SDS011;14546;47.590;19.022;2022-11-09T07:20:57;91.80;;;29.38;;
27003;SDS011;14546;47.590;19.022;2022-11-09T07:23:23;81.20;;;29.88;;
27003;SDS011;14546;47.590;19.022;2022-11-09T07:25:49;84.82;;;30.75;;
27003;SDS011;14546;47.590;19.022;2022-11-09T07:28:16;86.60;;;30.52;;
27003;SDS011;14546;47.590;19.022;2022-11-09T07:30:42;85.30;;;31.38;;
27003;SDS011;14546;47.590;19.022;2022-11-09T07:33:12;78.55;;;30.17;;
27003;SDS011;14546;47.590;19.022;2022-11-09T07:35:38;76.13;;;29.58;;
27003;SDS011;14546;47.590;19.022;2022-11-09T07:38:05;72.05;;;29.10;;
27003;SDS011;14546;47.590;19.022;2022-11-09T07:40:31;80.05;;;31.25;;
27003;SDS011;14546;47.590;19.022;2022-11-09T07:42:57;82.40;;;31.42;;
27003;SDS011;14546;47.590;19.022;2022-11-09T07:45:23;74.72;;;30.98;;
27003;SDS011;14546;47.590;19.022;2022-11-09T07:47:53;84.20;;;32.53;;
27003;SDS011;14546;47.590;19.022;2022-11-09T07:50:19;75.45;;;31.17;;
27003;SDS011;14546;47.590;19.022;2022-11-09T07:52:45;75.70;;;29.95;;
27003;SDS011;14546;47.590;19.022;2022-11-09T07:55:12;78.05;;;30.73;;
27003;SDS011;14546;47.590;19.022;2022-11-09T07:57:37;78.20;;;30.88;;
27003;SDS011;14546;47.590;19.022;2022-11-09T08:00:04;82.47;;;32.05;;
27003;SDS011;14546;47.590;19.022;2022-11-09T08:02:30;85.28;;;30.60;;
27003;SDS011;14546;47.590;19.022;2022-11-09T08:04:56;92.72;;;32.97;;
27003;SDS011;14546;47.590;19.022;2022-11-09T08:07:22;84.63;;;32.20;;
27003;SDS011;14546;47.590;19.022;2022-11-09T08:09:48;90.57;;;31.38;;
27003;SDS011;14546;47.590;19.022;2022-11-09T08:12:14;90.95;;;33.58;;
27003;SDS011;14546;47.590;19.022;2022-11-09T08:14:40;93.15;;;32.75;;
27003;SDS011;14546;47.590;19.022;2022-11-09T08:17:06;93.25;;;32.75;;
27003;SDS011;14546;47.590;19.022;2022-11-09T08:19:32;87.20;;;33.28;;
27003;SDS011;14546;47.590;19.022;2022-11-09T08:21:58;100.43;;;33.63;;
27003;SDS011;14546;47.590;19.022;2022-11-09T08:24:24;91.50;;;32.55;;
27003;SDS011;14546;47.590;19.022;2022-11-09T08:26:50;98.00;;;34.05;;
27003;SDS011;14546;47.590;19.022;2022-11-09T08:29:16;93.25;;;34.35;;
27003;SDS011;14546;47.590;19.022;2022-11-09T08:31:42;90.85;;;32.10;;
27003;SDS011;14546;47.590;19.022;2022-11-09T08:34:11;106.03;;;35.00;;
27003;SDS011;14546;47.590;19.022;2022-11-09T08:36:40;101.63;;;33.95;;
27003;SDS011;14546;47.590;19.022;2022-11-09T08:39:06;111.03;;;35.80;;
27003;SDS011;14546;47.590;19.022;2022-11-09T08:41:33;100.85;;;34.58;;
27003;SDS011;14546;47.590;19.022;2022-11-09T08:43:59;111.03;;;33.92;;
27003;SDS011;14546;47.590;19.022;2022-11-09T08:46:25;107.43;;;35.47;;
27003;SDS011;14546;47.590;19.022;2022-11-09T08:48:51;90.53;;;32.25;;
27003;SDS011;14546;47.590;19.022;2022-11-09T08:51:17;124.80;;;34.75;;
27003;SDS011;14546;47.590;19.022;2022-11-09T08:53:43;116.70;;;35.28;;
27003;SDS011;14546;47.590;19.022;2022-11-09T08:56:09;103.00;;;33.95;;
27003;SDS011;14546;47.590;19.022;2022-11-09T08:58:37;106.50;;;34.92;;
27003;SDS011;14546;47.590;19.022;2022-11-09T09:01:09;109.40;;;35.65;;
27003;SDS011;14546;47.590;19.022;2022-11-09T09:03:35;104.18;;;34.92;;
27003;SDS011;14546;47.590;19.022;2022-11-09T09:06:02;98.28;;;35.47;;
27003;SDS011;14546;47.590;19.022;2022-11-09T09:08:28;109.82;;;35.42;;
27003;SDS011;14546;47.590;19.022;2022-11-09T09:10:54;125.35;;;35.55;;
27003;SDS011;14546;47.590;19.022;2022-11-09T09:13:20;107.03;;;37.05;;
27003;SDS011;14546;47.590;19.022;2022-11-09T09:15:47;113.00;;;36.38;;
27003;SDS011;14546;47.590;19.022;2022-11-09T09:18:13;110.63;;;37.17;;
27003;SDS011;14546;47.590;19.022;2022-11-09T09:20:39;137.38;;;38.38;;
27003;SDS011;14546;47.590;19.022;2022-11-09T09:23:05;128.05;;;37.83;;
27003;SDS011;14546;47.590;19.022;2022-11-09T09:25:31;126.53;;;39.00;;
27003;SDS011;14546;47.590;19.022;2022-11-09T09:27:57;124.00;;;38.90;;
27003;SDS011;14546;47.590;19.022;2022-11-09T09:30:23;113.22;;;37.17;;
27003;SDS011;14546;47.590;19.022;2022-11-09T09:32:49;116.40;;;38.03;;
27003;SDS011;14546;47.590;19.022;2022-11-09T09:35:15;130.32;;;40.20;;
27003;SDS011;14546;47.590;19.022;2022-11-09T09:37:42;134.05;;;40.47;;
27003;SDS011;14546;47.590;19.022;2022-11-09T09:40:13;131.23;;;39.80;;
27003;SDS011;14546;47.590;19.022;2022-11-09T09:42:45;135.15;;;44.03;;
27003;SDS011;14546;47.590;19.022;2022-11-09T09:45:12;132.82;;;41.70;;
27003;SDS011;14546;47.590;19.022;2022-11-09T09:50:14;129.93;;;42.83;;
27003;SDS011;14546;47.590;19.022;2022-11-09T09:57:45;125.05;;;42.90;;
27003;SDS011;14546;47.590;19.022;2022-11-09T10:00:21;129.30;;;43.63;;
27003;SDS011;14546;47.590;19.022;2022-11-09T10:02:47;136.50;;;44.88;;
27003;SDS011;14546;47.590;19.022;2022-11-09T10:05:15;143.65;;;48.17;;
27003;SDS011;14546;47.590;19.022;2022-11-09T10:07:44;128.38;;;44.75;;
27003;SDS011;14546;47.590;19.022;2022-11-09T10:10:20;139.05;;;47.65;;
27003;SDS011;14546;47.590;19.022;2022-11-09T10:18:18;128.15;;;46.15;;
27003;SDS011;14546;47.590;19.022;2022-11-09T10:26:03;139.77;;;48.50;;
27003;SDS011;14546;47.590;19.022;2022-11-09T10:28:29;124.45;;;46.13;;
27003;SDS011;14546;47.590;19.022;2022-11-09T10:30:58;132.13;;;49.00;;
27003;SDS011;14546;47.590;19.022;2022-11-09T10:33:24;138.65;;;50.85;;
27003;SDS011;14546;47.590;19.022;2022-11-09T10:38:28;128.80;;;48.92;;
27003;SDS011;14546;47.590;19.022;2022-11-09T10:41:38;125.65;;;47.72;;
27003;SDS011;14546;47.590;19.022;2022-11-09T10:43:44;129.40;;;48.40;;
27003;SDS011;14546;47.590;19.022;2022-11-09T10:46:10;127.80;;;50.15;;
27003;SDS011;14546;47.590;19.022;2022-11-09T10:48:37;132.00;;;50.92;;
27003;SDS011;14546;47.590;19.022;2022-11-09T10:51:03;128.80;;;50.17;;
27003;SDS011;14546;47.590;19.022;2022-11-09T10:53:31;139.25;;;50.45;;
27003;SDS011;14546;47.590;19.022;2022-11-09T10:58:36;123.80;;;48.95;;
27003;SDS011;14546;47.590;19.022;2022-11-09T11:01:04;125.50;;;48.90;;
27003;SDS011;14546;47.590;19.022;2022-11-09T11:03:33;130.48;;;51.60;;
27003;SDS011;14546;47.590;19.022;2022-11-09T11:06:03;133.90;;;51.92;;
27003;SDS011;14546;47.590;19.022;2022-11-09T11:08:35;137.35;;;51.88;;
27003;SDS011;14546;47.590;19.022;2022-11-09T11:13:42;136.90;;;51.63;;
27003;SDS011;14546;47.590;19.022;2022-11-09T11:18:53;140.45;;;52.40;;
27003;SDS011;14546;47.590;19.022;2022-11-09T11:21:21;141.48;;;51.35;;
27003;SDS011;14546;47.590;19.022;2022-11-09T11:29:07;144.20;;;53.08;;
27003;SDS011;14546;47.590;19.022;2022-11-09T11:31:35;146.98;;;55.22;;
27003;SDS011;14546;47.590;19.022;2022-11-09T11:34:01;142.27;;;52.72;;
27003;SDS011;14546;47.590;19.022;2022-11-09T11:47:27;128.50;;;52.53;;
27003;SDS011;14546;47.590;19.022;2022-11-09T11:52:30;119.20;;;51.50;;
27003;SDS011;14546;47.590;19.022;2022-11-09T11:57:36;126.25;;;52.10;;
27003;SDS011;14546;47.590;19.022;2022-11-09T12:00:10;120.50;;;54.00;;
27003;SDS011;14546;47.590;19.022;2022-11-09T12:26:04;121.75;;;54.72;;
27003;SDS011;14546;47.590;19.022;2022-11-09T12:33:47;120.43;;;53.85;;
27003;SDS011;14546;47.590;19.022;2022-11-09T12:36:22;118.90;;;54.85;;
27003;SDS011;14546;47.590;19.022;2022-11-09T12:41:17;119.60;;;53.08;;
27003;SDS011;14546;47.590;19.022;2022-11-09T12:43:56;128.90;;;56.53;;
27003;SDS011;14546;47.590;19.022;2022-11-09T12:46:27;127.38;;;55.28;;
27003;SDS011;14546;47.590;19.022;2022-11-09T12:48:54;126.65;;;56.00;;
27003;SDS011;14546;47.590;19.022;2022-11-09T12:51:22;128.15;;;55.67;;
27003;SDS011;14546;47.590;19.022;2022-11-09T12:53:48;128.93;;;54.55;;
27003;SDS011;14546;47.590;19.022;2022-11-09T12:56:19;122.90;;;54.90;;
27003;SDS011;14546;47.590;19.022;2022-11-09T12:58:46;133.55;;;56.35;;
27003;SDS011;14546;47.590;19.022;2022-11-09T13:01:42;130.65;;;54.78;;
27003;SDS011;14546;47.590;19.022;2022-11-09T13:03:59;135.05;;;56.63;;
27003;SDS011;14546;47.590;19.022;2022-11-09T13:06:26;130.90;;;54.47;;
27003;SDS011;14546;47.590;19.022;2022-11-09T13:08:57;132.88;;;55.80;;
27003;SDS011;14546;47.590;19.022;2022-11-09T13:14:32;124.15;;;55.25;;
27003;SDS011;14546;47.590;19.022;2022-11-09T13:17:01;130.32;;;55.55;;
27003;SDS011;14546;47.590;19.022;2022-11-09T13:30:00;133.18;;;57.13;;
27003;SDS011;14546;47.590;19.022;2022-11-09T13:32:27;127.90;;;57.47;;
27003;SDS011;14546;47.590;19.022;2022-11-09T13:34:56;135.45;;;57.55;;
27003;SDS011;14546;47.590;19.022;2022-11-09T13:48:19;135.43;;;59.90;;
27003;SDS011;14546;47.590;19.022;2022-11-09T13:50:51;137.38;;;58.05;;
27003;SDS011;14546;47.590;19.022;2022-11-09T13:53:46;141.43;;;60.00;;
27003;SDS011;14546;47.590;19.022;2022-11-09T13:58:42;142.63;;;58.05;;
27003;SDS011;14546;47.590;19.022;2022-11-09T14:01:27;135.35;;;55.63;;
27003;SDS011;14546;47.590;19.022;2022-11-09T14:03:54;125.40;;;55.83;;
27003;SDS011;14546;47.590;19.022;2022-11-09T14:06:20;134.18;;;57.53;;
27003;SDS011;14546;47.590;19.022;2022-11-09T14:08:46;142.95;;;58.72;;
27003;SDS011;14546;47.590;19.022;2022-11-09T14:26:57;147.10;;;59.03;;
27003;SDS011;14546;47.590;19.022;2022-11-09T14:29:23;147.37;;;58.23;;
27003;SDS011;14546;47.590;19.022;2022-11-09T14:31:50;144.15;;;57.58;;
27003;SDS011;14546;47.590;19.022;2022-11-09T14:34:16;148.82;;;58.83;;
27003;SDS011;14546;47.590;19.022;2022-11-09T14:36:42;137.93;;;55.72;;
27003;SDS011;14546;47.590;19.022;2022-11-09T14:39:22;145.95;;;59.20;;
27003;SDS011;14546;47.590;19.022;2022-11-09T14:41:51;136.00;;;58.25;;
27003;SDS011;14546;47.590;19.022;2022-11-09T14:44:27;135.20;;;56.17;;
27003;SDS011;14546;47.590;19.022;2022-11-09T14:46:56;143.55;;;60.17;;
27003;SDS011;14546;47.590;19.022;2022-11-09T14:49:23;160.63;;;60.10;;
27003;SDS011;14546;47.590;19.022;2022-11-09T14:51:49;143.43;;;59.47;;
27003;SDS011;14546;47.590;19.022;2022-11-09T14:54:15;155.40;;;59.67;;
27003;SDS011;14546;47.590;19.022;2022-11-09T14:56:42;149.30;;;59.58;;
27003;SDS011;14546;47.590;19.022;2022-11-09T14:59:13;140.95;;;59.03;;
27003;SDS011;14546;47.590;19.022;2022-11-09T15:01:39;138.77;;;58.47;;
27003;SDS011;14546;47.590;19.022;2022-11-09T15:06:32;148.35;;;59.40;;
27003;SDS011;14546;47.590;19.022;2022-11-09T15:09:00;151.68;;;59.35;;
27003;SDS011;14546;47.590;19.022;2022-11-09T15:11:46;142.02;;;58.17;;
27003;SDS011;14546;47.590;19.022;2022-11-09T15:16:47;144.35;;;58.80;;
27003;SDS011;14546;47.590;19.022;2022-11-09T15:19:20;154.90;;;63.20;;
27003;SDS011;14546;47.590;19.022;2022-11-09T15:21:47;156.55;;;60.78;;
27003;SDS011;14546;47.590;19.022;2022-11-09T15:24:14;144.73;;;58.22;;
27003;SDS011;14546;47.590;19.022;2022-11-09T15:26:47;151.35;;;59.80;;
27003;SDS011;14546;47.590;19.022;2022-11-09T15:32:17;147.13;;;61.35;;
27003;SDS011;14546;47.590;19.022;2022-11-09T15:39:45;135.38;;;60.85;;
27003;SDS011;14546;47.590;19.022;2022-11-09T15:42:11;152.05;;;60.53;;
27003;SDS011;14546;47.590;19.022;2022-11-09T15:44:37;157.52;;;60.83;;
27003;SDS011;14546;47.590;19.022;2022-11-09T15:47:03;150.13;;;62.85;;
27003;SDS011;14546;47.590;19.022;2022-11-09T15:49:41;155.13;;;63.25;;
27003;SDS011;14546;47.590;19.022;2022-11-09T15:52:08;150.93;;;64.07;;
27003;SDS011;14546;47.590;19.022;2022-11-09T15:54:34;154.68;;;62.78;;
27003;SDS011;14546;47.590;19.022;2022-11-09T15:57:00;153.13;;;63.28;;
27003;SDS011;14546;47.590;19.022;2022-11-09T15:59:26;161.63;;;63.45;;
27003;SDS011;14546;47.590;19.022;2022-11-09T16:01:52;148.43;;;63.00;;
27003;SDS011;14546;47.590;19.022;2022-11-09T16:04:18;152.45;;;60.95;;
27003;SDS011;14546;47.590;19.022;2022-11-09T16:06:44;146.48;;;61.40;;
27003;SDS011;14546;47.590;19.022;2022-11-09T16:09:10;154.82;;;63.78;;
27003;SDS011;14546;47.590;19.022;2022-11-09T16:11:36;172.32;;;66.45;;
27003;SDS011;14546;47.590;19.022;2022-11-09T16:14:02;158.70;;;64.35;;
27003;SDS011;14546;47.590;19.022;2022-11-09T16:16:28;158.68;;;65.68;;
27003;SDS011;14546;47.590;19.022;2022-11-09T16:18:55;160.88;;;63.92;;
27003;SDS011;14546;47.590;19.022;2022-11-09T16:21:21;152.10;;;62.85;;
27003;SDS011;14546;47.590;19.022;2022-11-09T16:23:47;164.25;;;64.40;;
27003;SDS011;14546;47.590;19.022;2022-11-09T16:26:15;153.40;;;65.32;;
27003;SDS011;14546;47.590;19.022;2022-11-09T16:28:41;149.05;;;62.63;;